Time;durP1;ratioP1;P1;durP2;ratioP2;P2;SDS_P1;SDS_P2;PMS_P1;PMS_P2;Temp;Humidity;BMP_temperature;BMP_pressure;BME280_temperature;BME280_humidity;BME280_pressure;Samples;Min_cycle;Max_cycle;Signal;HPM_P1;HPM_P2
2022/09/04 00:03:00;;;;;;;1.20;0.63;;;21.70;99.90;;;;;;5103473;28;20316;-92
2022/09/04 00:05:37;;;;;;;0.80;0.60;;;22.00;99.90;;;;;;5104058;28;20554;-92
2022/09/04 00:08:47;;;;;;;3.03;0.90;;;22.40;99.90;;;;;;5106723;28;20206;-92
2022/09/04 00:11:30;;;;;;;2.53;1.03;;;22.60;99.90;;;;;;5106290;28;20207;-93
2022/09/04 00:17:29;;;;;;;1.10;0.70;;;22.50;99.90;;;;;;5105349;28;20207;-92
2022/09/04 00:35:00;;;;;;;1.00;0.60;;;23.00;99.90;;;;;;5063581;28;20209;-91
2022/09/04 00:37:49;;;;;;;2.07;0.60;;;23.20;99.90;;;;;;5069708;28;20219;-90
2022/09/04 00:40:31;;;;;;;0.77;0.43;;;23.10;99.90;;;;;;5069474;28;20235;-91
2022/09/04 00:44:02;;;;;;;1.70;0.47;;;23.30;99.90;;;;;;5072310;28;20220;-91
2022/09/04 00:47:08;;;;;;;0.90;0.60;;;23.50;99.90;;;;;;5034636;28;20208;-90
2022/09/04 00:53:36;;;;;;;2.37;0.70;;;23.70;99.90;;;;;;5069303;28;20211;-91
2022/09/04 00:56:51;;;;;;;0.87;0.60;;;23.80;99.90;;;;;;5070811;28;20207;-91
2022/09/04 00:59:45;;;;;;;2.67;1.93;;;23.60;99.90;;;;;;5068763;28;20200;-91
2022/09/04 01:02:32;;;;;;;1.07;0.73;;;23.30;99.90;;;;;;5062462;28;20254;-91
2022/09/04 01:05:12;;;;;;;0.40;0.33;;;23.40;99.90;;;;;;5059778;28;20597;-90
2022/09/04 01:08:03;;;;;;;2.07;0.83;;;23.20;99.90;;;;;;5070006;28;20261;-91
2022/09/04 01:10:46;;;;;;;0.50;0.50;;;23.20;99.90;;;;;;5068653;28;20208;-91
2022/09/04 01:13:27;;;;;;;1.47;0.70;;;23.20;99.90;;;;;;5053312;28;20212;-90
2022/09/04 01:16:06;;;;;;;0.77;0.60;;;23.00;99.90;;;;;;5073738;28;20216;-91
2022/09/04 01:18:58;;;;;;;0.80;0.70;;;22.90;99.90;;;;;;5071394;28;20208;-91
2022/09/04 01:22:03;;;;;;;1.00;0.60;;;23.20;99.90;;;;;;5071515;28;20220;-92
2022/09/04 01:28:06;;;;;;;2.50;0.60;;;23.00;99.90;;;;;;5074529;28;20192;-91
2022/09/04 01:30:50;;;;;;;0.80;0.50;;;22.50;99.90;;;;;;5063619;28;20208;-92
2022/09/04 01:33:31;;;;;;;1.20;0.70;;;22.40;99.90;;;;;;5059691;28;20232;-92
2022/09/04 01:36:10;;;;;;;3.33;0.70;;;22.10;99.90;;;;;;5060239;28;20224;-92
2022/09/04 01:38:49;;;;;;;0.90;0.80;;;22.00;99.90;;;;;;5060346;28;20513;-93
2022/09/04 01:41:27;;;;;;;1.00;0.90;;;21.80;99.90;;;;;;5060615;28;20263;-92
2022/09/04 01:44:01;;;;;;;3.20;1.40;;;21.70;99.90;;;;;;5059728;28;20259;-92
2022/09/04 01:46:51;;;;;;;3.83;1.30;;;21.50;99.90;;;;;;5042542;28;20727;-92
2022/09/04 01:49:30;;;;;;;0.80;0.80;;;21.40;99.90;;;;;;5044931;28;20208;-92
2022/09/04 01:52:12;;;;;;;0.97;0.83;;;21.20;99.90;;;;;;5041405;28;20219;-93
2022/09/04 01:54:53;;;;;;;0.87;0.70;;;21.00;99.90;;;;;;5043551;28;20213;-91
2022/09/04 01:57:37;;;;;;;0.80;0.80;;;20.90;99.90;;;;;;5041159;28;20351;-92
2022/09/04 02:00:14;;;;;;;1.40;0.60;;;20.70;99.90;;;;;;5025341;28;20213;-92
2022/09/04 02:02:55;;;;;;;1.40;0.83;;;20.70;99.90;;;;;;5038902;28;20209;-93
2022/09/04 02:05:34;;;;;;;2.07;0.90;;;20.60;99.90;;;;;;5040253;28;20213;-92
2022/09/04 02:08:25;;;;;;;1.80;0.97;;;20.50;99.90;;;;;;5040018;28;20204;-92
2022/09/04 02:11:03;;;;;;;1.40;1.10;;;20.50;99.90;;;;;;5040105;28;20236;-93
2022/09/04 02:13:52;;;;;;;0.77;0.77;;;20.40;99.90;;;;;;5041057;28;20204;-91
2022/09/04 02:16:35;;;;;;;1.47;0.83;;;20.30;99.90;;;;;;5061477;28;20253;-92
2022/09/04 02:19:21;;;;;;;0.93;0.63;;;20.20;99.90;;;;;;5060406;28;20216;-92
2022/09/04 02:22:01;;;;;;;1.23;0.70;;;20.20;99.90;;;;;;5059097;28;20285;-93
2022/09/04 02:24:40;;;;;;;1.23;0.90;;;20.10;99.90;;;;;;5044989;28;20288;-92
2022/09/04 02:27:17;;;;;;;1.50;0.97;;;20.00;99.90;;;;;;5063672;28;20211;-93
2022/09/04 02:29:54;;;;;;;1.17;0.80;;;20.00;99.90;;;;;;5044271;28;20664;-93
2022/09/04 02:32:36;;;;;;;1.33;1.00;;;20.10;99.90;;;;;;5060245;28;20310;-92
2022/09/04 02:38:30;;;;;;;2.10;0.80;;;19.90;99.90;;;;;;5078208;28;20232;-92
2022/09/04 02:41:10;;;;;;;3.57;0.93;;;19.80;99.90;;;;;;5074790;28;20192;-93
2022/09/04 02:44:08;;;;;;;1.27;0.80;;;19.80;99.90;;;;;;5060771;28;20231;-92
2022/09/04 02:46:54;;;;;;;1.10;1.00;;;19.70;99.90;;;;;;5061976;28;20200;-92
2022/09/04 02:49:38;;;;;;;2.10;0.90;;;19.50;99.90;;;;;;5062264;28;20212;-92
2022/09/04 02:52:23;;;;;;;0.70;0.70;;;19.40;99.90;;;;;;5047340;28;20299;-92
2022/09/04 02:55:16;;;;;;;3.33;1.10;;;19.30;99.90;;;;;;5045626;28;20617;-92
2022/09/04 02:58:13;;;;;;;1.67;1.03;;;19.10;99.90;;;;;;5096376;22;20591;-93
2022/09/04 03:03:40;;;;;;;1.87;1.00;;;18.90;99.90;;;;;;5113028;28;20226;-94
2022/09/04 03:06:24;;;;;;;1.10;1.00;;;18.90;99.90;;;;;;5110858;28;20274;-91
2022/09/04 03:09:02;;;;;;;1.13;1.03;;;18.80;99.90;;;;;;5115307;28;20233;-92
2022/09/04 03:11:46;;;;;;;3.57;1.03;;;18.80;99.90;;;;;;5115893;28;20191;-94
2022/09/04 03:17:45;;;;;;;1.17;0.97;;;18.80;99.90;;;;;;5113813;28;20253;-92
2022/09/04 03:20:23;;;;;;;5.33;1.10;;;18.80;99.90;;;;;;5109788;28;20199;-92
2022/09/04 03:23:25;;;;;;;1.63;1.10;;;18.80;99.90;;;;;;5112725;28;20669;-92
2022/09/04 03:26:39;;;;;;;2.30;0.90;;;18.80;99.90;;;;;;5115038;28;20310;-92
2022/09/04 03:29:25;;;;;;;2.90;1.07;;;18.70;99.90;;;;;;5111828;28;20207;-93
2022/09/04 03:32:06;;;;;;;1.30;1.00;;;18.60;99.90;;;;;;5105529;28;20191;-92
2022/09/04 03:38:07;;;;;;;1.93;0.70;;;18.50;99.90;;;;;;5110666;27;20217;-92
2022/09/04 03:44:02;;;;;;;1.13;0.90;;;18.40;99.90;;;;;;5104919;27;20199;-93
2022/09/04 03:49:59;;;;;;;2.20;1.43;;;18.20;99.90;;;;;;5106619;28;20214;-92
2022/09/04 03:52:37;;;;;;;2.87;2.00;;;18.20;99.90;;;;;;5112413;28;20207;-91
2022/09/04 03:55:24;;;;;;;2.60;2.03;;;18.10;99.90;;;;;;5105495;27;20203;-92
2022/09/04 03:58:06;;;;;;;3.90;2.30;;;18.10;99.90;;;;;;5104560;28;20206;-92
2022/09/04 04:00:55;;;;;;;3.67;2.27;;;18.00;99.90;;;;;;5110059;28;20206;-91
2022/09/04 04:04:02;;;;;;;3.80;2.70;;;18.00;99.90;;;;;;5109431;28;20211;-92
2022/09/04 04:09:39;;;;;;;3.83;3.33;;;17.80;99.90;;;;;;5341091;22;20228;-92
2022/09/04 04:12:27;;;;;;;4.70;2.87;;;17.80;99.90;;;;;;5066069;28;20207;-92
2022/09/04 04:15:18;;;;;;;4.93;3.60;;;17.80;99.90;;;;;;5053298;28;20204;-93
2022/09/04 04:18:30;;;;;;;5.73;2.90;;;17.70;99.90;;;;;;5069931;28;20208;-93
2022/09/04 04:21:15;;;;;;;2.03;1.20;;;17.70;99.90;;;;;;5065582;28;20212;-93
2022/09/04 04:24:13;;;;;;;3.47;2.17;;;17.60;99.90;;;;;;5049603;28;20300;-92
2022/09/04 04:27:21;;;;;;;4.20;1.80;;;17.60;99.90;;;;;;5071574;28;20196;-93
2022/09/04 04:30:11;;;;;;;2.73;1.87;;;17.50;99.90;;;;;;5069084;28;20207;-93
2022/09/04 04:32:59;;;;;;;2.10;1.80;;;17.50;99.90;;;;;;5041321;28;20348;-93
2022/09/04 04:35:41;;;;;;;2.47;1.70;;;17.40;99.90;;;;;;5037060;28;20259;-93
2022/09/04 04:38:28;;;;;;;3.57;1.63;;;17.40;99.90;;;;;;5039630;28;20209;-92
2022/09/04 04:41:14;;;;;;;1.70;1.50;;;17.40;99.90;;;;;;5036601;28;20212;-93
2022/09/04 04:44:00;;;;;;;1.57;1.43;;;17.30;99.90;;;;;;5036033;28;20213;-93
2022/09/04 04:46:46;;;;;;;2.90;1.50;;;17.30;99.90;;;;;;5037057;28;20259;-93
2022/09/04 04:49:33;;;;;;;3.93;2.47;;;17.30;99.90;;;;;;5036513;28;20224;-92
2022/09/04 04:52:27;;;;;;;3.37;2.47;;;17.20;99.90;;;;;;5035245;28;20645;-93
2022/09/04 04:55:20;;;;;;;4.67;2.77;;;17.20;99.90;;;;;;5036327;28;20680;-92
2022/09/04 04:58:18;;;;;;;3.33;3.03;;;17.20;99.90;;;;;;5035686;28;20614;-93
2022/09/04 05:00:57;;;;;;;3.13;2.83;;;17.20;99.90;;;;;;5036590;28;20216;-92
2022/09/04 05:03:43;;;;;;;4.37;2.53;;;17.20;99.90;;;;;;5036669;28;20239;-93
2022/09/04 05:06:20;;;;;;;4.43;2.43;;;17.20;99.90;;;;;;5036275;28;20264;-93
2022/09/04 05:09:04;;;;;;;3.53;2.17;;;17.10;99.90;;;;;;5036198;28;20303;-93
2022/09/04 05:11:44;;;;;;;2.40;2.20;;;17.10;99.90;;;;;;5035851;28;20274;-92
2022/09/04 05:14:34;;;;;;;1.90;1.60;;;17.10;99.90;;;;;;5036283;28;20216;-93
2022/09/04 05:17:15;;;;;;;2.03;1.40;;;17.10;99.90;;;;;;5036380;28;20634;-92
2022/09/04 05:19:53;;;;;;;2.53;1.10;;;17.10;99.90;;;;;;5035868;28;20220;-92
2022/09/04 05:22:33;;;;;;;1.83;1.13;;;17.00;99.90;;;;;;5035116;28;20208;-92
2022/09/04 05:25:14;;;;;;;1.27;1.17;;;17.00;99.90;;;;;;5035751;28;20233;-93
2022/09/04 05:28:08;;;;;;;1.87;1.27;;;16.90;99.90;;;;;;5036272;28;20216;-93
2022/09/04 05:30:48;;;;;;;1.83;1.20;;;17.00;99.90;;;;;;5034718;28;20212;-92
2022/09/04 05:33:26;;;;;;;3.23;2.37;;;16.90;99.90;;;;;;5035612;28;20212;-92
2022/09/04 05:36:03;;;;;;;4.03;3.30;;;16.90;99.90;;;;;;5038316;28;20209;-93
2022/09/04 05:38:45;;;;;;;4.50;3.30;;;16.90;99.90;;;;;;5035917;28;20298;-92
2022/09/04 05:41:33;;;;;;;4.60;2.70;;;16.80;99.90;;;;;;5042075;28;20248;-93
2022/09/04 05:44:22;;;;;;;3.23;1.87;;;16.80;99.90;;;;;;5039250;28;20205;-93
2022/09/04 05:47:08;;;;;;;1.97;1.70;;;16.80;99.90;;;;;;5067972;28;20239;-92
2022/09/04 05:49:59;;;;;;;4.83;1.77;;;16.80;99.90;;;;;;5056309;28;20235;-92
2022/09/04 05:52:55;;;;;;;2.83;1.20;;;16.70;99.90;;;;;;5055067;28;20212;-92
2022/09/04 05:55:48;;;;;;;1.53;1.40;;;16.70;99.90;;;;;;5055826;28;20656;-92
2022/09/04 05:58:37;;;;;;;1.30;1.00;;;16.60;99.90;;;;;;5047643;28;20274;-92
2022/09/04 06:01:25;;;;;;;3.47;1.40;;;16.60;99.90;;;;;;5059293;28;20200;-93
2022/09/04 06:04:15;;;;;;;2.03;1.13;;;16.60;99.90;;;;;;5061789;28;20262;-93
2022/09/04 06:06:54;;;;;;;1.93;1.17;;;16.50;99.90;;;;;;5074978;28;20258;-92
2022/09/04 06:09:39;;;;;;;3.53;1.33;;;16.40;99.90;;;;;;5077029;28;20273;-92
2022/09/04 06:12:51;;;;;;;2.07;1.30;;;16.40;99.90;;;;;;5074499;28;20204;-92
2022/09/04 06:15:37;;;;;;;1.00;1.00;;;16.40;99.90;;;;;;5061737;28;20212;-93
2022/09/04 06:18:55;;;;;;;1.73;1.20;;;16.30;99.90;;;;;;5061138;28;20211;-92
2022/09/04 06:22:04;;;;;;;2.40;1.40;;;16.30;99.90;;;;;;5060486;28;20266;-91
2022/09/04 06:24:55;;;;;;;1.87;1.10;;;16.30;99.90;;;;;;5062470;28;20208;-92
2022/09/04 06:27:55;;;;;;;1.60;1.10;;;16.30;99.90;;;;;;5062217;28;20242;-92
2022/09/04 06:30:32;;;;;;;3.33;1.30;;;16.30;99.90;;;;;;5062274;28;20284;-92
2022/09/04 06:33:46;;;;;;;1.57;1.10;;;16.30;99.90;;;;;;5061743;28;20655;-93
2022/09/04 06:36:46;;;;;;;2.00;1.03;;;16.20;99.90;;;;;;5020379;28;20260;-92
2022/09/04 06:39:40;;;;;;;1.40;1.13;;;16.30;99.90;;;;;;5020858;28;20721;-93
2022/09/04 06:42:25;;;;;;;1.30;1.20;;;16.30;99.90;;;;;;5059463;28;20212;-93
2022/09/04 06:45:11;;;;;;;3.03;1.30;;;16.20;99.90;;;;;;5062683;28;20711;-91
2022/09/04 06:47:56;;;;;;;2.43;1.47;;;16.20;99.90;;;;;;5063218;28;21149;-92
2022/09/04 06:50:33;;;;;;;1.63;1.50;;;16.20;99.90;;;;;;5063448;28;20234;-92
2022/09/04 06:53:18;;;;;;;2.17;1.67;;;16.20;99.90;;;;;;5062021;28;20656;-93
2022/09/04 06:56:02;;;;;;;1.87;1.73;;;16.10;99.90;;;;;;5064357;28;20243;-93
2022/09/04 06:58:57;;;;;;;2.60;2.00;;;16.10;99.90;;;;;;5063020;28;20228;-93
2022/09/04 07:01:40;;;;;;;4.10;2.20;;;16.10;99.90;;;;;;5046009;28;20204;-93
2022/09/04 07:04:28;;;;;;;2.37;2.17;;;16.10;99.90;;;;;;5121549;22;20297;-91
2022/09/04 07:07:08;;;;;;;3.80;2.00;;;16.00;99.90;;;;;;5103551;28;20226;-91
2022/09/04 07:09:45;;;;;;;2.63;2.00;;;16.00;99.90;;;;;;5101843;28;20249;-92
2022/09/04 07:12:58;;;;;;;2.50;2.30;;;16.10;99.90;;;;;;5097729;28;20207;-93
2022/09/04 07:15:55;;;;;;;3.60;1.77;;;16.10;99.90;;;;;;5103464;22;20244;-92
2022/09/04 07:18:58;;;;;;;3.67;1.53;;;16.10;99.90;;;;;;5067420;28;20195;-92
2022/09/04 07:21:38;;;;;;;4.30;1.83;;;16.20;99.90;;;;;;5053402;28;20220;-92
2022/09/04 07:27:28;;;;;;;2.93;1.40;;;16.20;99.90;;;;;;5068047;28;20240;-92
2022/09/04 07:30:08;;;;;;;2.80;1.67;;;16.30;99.90;;;;;;5059325;28;20200;-92
2022/09/04 07:32:50;;;;;;;2.60;1.53;;;16.20;99.90;;;;;;5061223;28;20553;-93
2022/09/04 07:35:26;;;;;;;1.80;1.30;;;16.20;99.90;;;;;;5058690;28;20235;-92
2022/09/04 07:38:02;;;;;;;2.43;1.30;;;16.20;99.90;;;;;;5058695;28;20227;-92
2022/09/04 07:40:38;;;;;;;2.23;1.00;;;16.20;99.90;;;;;;5058789;28;20262;-92
2022/09/04 07:43:20;;;;;;;1.73;1.00;;;16.10;99.90;;;;;;5040812;28;20289;-92
2022/09/04 07:46:02;;;;;;;2.20;1.43;;;16.10;99.90;;;;;;5064194;28;20244;-92
2022/09/04 07:48:42;;;;;;;2.70;1.57;;;16.10;99.90;;;;;;5066404;28;20230;-92
2022/09/04 07:51:17;;;;;;;2.87;1.20;;;16.10;99.90;;;;;;5058702;28;20274;-92
2022/09/04 07:54:07;;;;;;;1.33;1.20;;;16.00;99.90;;;;;;5057190;28;20207;-93
2022/09/04 07:56:58;;;;;;;2.63;1.60;;;16.00;99.90;;;;;;5058496;28;20211;-92
2022/09/04 08:00:16;;;;;;;1.47;1.27;;;16.00;99.90;;;;;;5058444;28;20337;-92
2022/09/04 08:03:19;;;;;;;3.00;1.40;;;15.90;99.90;;;;;;5071311;28;20207;-92
2022/09/04 08:06:04;;;;;;;2.00;1.20;;;15.90;99.90;;;;;;5053055;28;20277;-92
2022/09/04 08:09:08;;;;;;;1.93;1.23;;;15.90;99.90;;;;;;5070944;28;20195;-92
2022/09/04 08:12:22;;;;;;;1.87;1.13;;;15.90;99.90;;;;;;5070060;28;20208;-92
2022/09/04 08:14:56;;;;;;;1.63;1.20;;;15.90;99.90;;;;;;5066444;28;20257;-92
2022/09/04 08:17:45;;;;;;;2.13;1.40;;;15.90;99.90;;;;;;5068004;28;20200;-92
2022/09/04 08:24:02;;;;;;;1.30;1.20;;;15.80;99.90;;;;;;5066317;28;20208;-92
2022/09/04 08:26:45;;;;;;;3.30;1.20;;;15.80;99.90;;;;;;5067590;28;20244;-92
2022/09/04 08:29:43;;;;;;;1.83;1.50;;;15.80;99.90;;;;;;5068397;28;20595;-92
2022/09/04 08:35:36;;;;;;;1.83;1.47;;;15.80;99.90;;;;;;5063028;28;20209;-92
2022/09/04 08:38:30;;;;;;;1.47;1.37;;;15.80;99.90;;;;;;5064575;28;20293;-92
2022/09/04 08:41:34;;;;;;;2.47;1.63;;;15.70;99.90;;;;;;5065406;28;20315;-92
2022/09/04 08:44:49;;;;;;;1.77;1.50;;;15.60;99.90;;;;;;5071060;28;20216;-92
2022/09/04 08:48:12;;;;;;;1.83;1.50;;;15.60;99.90;;;;;;5035614;28;20281;-92
2022/09/04 08:51:12;;;;;;;4.27;1.53;;;15.50;99.90;;;;;;5056469;28;20216;-92
2022/09/04 08:54:15;;;;;;;3.07;1.60;;;15.40;99.90;;;;;;5049390;28;20218;-92
2022/09/04 08:56:58;;;;;;;2.63;1.60;;;15.30;99.90;;;;;;5036247;28;20572;-92
2022/09/04 09:00:07;;;;;;;2.17;1.60;;;15.30;99.90;;;;;;5070318;28;20261;-92
2022/09/04 09:03:18;;;;;;;1.87;1.47;;;15.20;99.90;;;;;;5060035;28;20254;-92
2022/09/04 09:06:19;;;;;;;1.83;1.40;;;15.30;99.90;;;;;;5055941;28;20246;-91
2022/09/04 09:09:39;;;;;;;1.30;1.20;;;15.20;99.90;;;;;;5056008;28;20219;-92
2022/09/04 09:12:45;;;;;;;2.00;1.50;;;15.10;99.90;;;;;;5047042;28;20196;-92
2022/09/04 09:15:56;;;;;;;2.10;1.70;;;15.00;99.90;;;;;;5046350;28;20232;-92
2022/09/04 09:18:50;;;;;;;2.07;1.53;;;15.00;99.90;;;;;;5056370;28;20741;-92
2022/09/04 09:21:34;;;;;;;2.63;1.60;;;15.00;99.90;;;;;;5061904;28;20212;-92
2022/09/04 09:24:45;;;;;;;2.27;1.77;;;15.00;99.90;;;;;;5062558;28;20254;-92
2022/09/04 09:28:02;;;;;;;2.40;1.80;;;14.90;99.90;;;;;;5060191;28;20232;-92
2022/09/04 09:34:16;;;;;;;1.83;1.67;;;14.80;99.90;;;;;;5065111;28;20206;-92
2022/09/04 09:37:12;;;;;;;2.40;1.70;;;14.80;99.90;;;;;;5067031;28;20219;-92
2022/09/04 09:40:11;;;;;;;3.20;1.40;;;14.80;99.90;;;;;;5068842;28;20227;-93
2022/09/04 09:43:25;;;;;;;2.10;1.70;;;14.80;99.90;;;;;;5061734;28;20330;-92
2022/09/04 09:46:37;;;;;;;3.50;1.73;;;14.80;99.90;;;;;;5062119;28;20250;-92
2022/09/04 09:49:46;;;;;;;3.60;1.60;;;14.80;99.90;;;;;;5065720;28;20208;-92
2022/09/04 09:53:05;;;;;;;3.23;1.67;;;14.70;99.90;;;;;;5064689;28;20228;-92
2022/09/04 09:55:54;;;;;;;2.07;1.57;;;14.70;99.90;;;;;;5029347;28;20192;-92
2022/09/04 09:59:04;;;;;;;4.13;1.87;;;14.70;99.90;;;;;;5058233;28;20266;-92
2022/09/04 10:02:00;;;;;;;2.93;1.80;;;14.80;99.90;;;;;;5058321;28;20231;-92
2022/09/04 10:05:09;;;;;;;3.47;1.90;;;14.90;99.90;;;;;;5059958;28;20214;-91
2022/09/04 10:08:12;;;;;;;3.77;2.00;;;15.20;99.90;;;;;;5058425;28;20239;-93
2022/09/04 10:11:25;;;;;;;3.33;1.90;;;15.30;99.90;;;;;;5060157;28;20262;-93
2022/09/04 10:14:30;;;;;;;4.30;1.47;;;15.70;99.90;;;;;;5037890;28;20277;-93
2022/09/04 10:17:26;;;;;;;5.43;1.60;;;16.00;99.90;;;;;;5039482;28;20197;-90
2022/09/04 10:20:38;;;;;;;6.33;1.93;;;16.10;99.90;;;;;;5040712;28;20296;-91
2022/09/04 10:23:29;;;;;;;4.27;1.67;;;16.20;99.90;;;;;;5042850;28;20208;-91
2022/09/04 10:26:20;;;;;;;2.50;1.50;;;16.20;99.90;;;;;;5040638;28;20205;-91
2022/09/04 10:29:27;;;;;;;5.07;1.60;;;16.20;99.90;;;;;;5039604;28;20557;-91
2022/09/04 10:32:24;;;;;;;3.30;1.87;;;16.10;99.90;;;;;;5023731;28;20292;-91
2022/09/04 10:35:26;;;;;;;2.80;1.70;;;16.20;99.90;;;;;;5038886;28;20335;-91
2022/09/04 10:38:27;;;;;;;4.60;1.70;;;16.20;99.90;;;;;;5040230;28;20631;-91
2022/09/04 10:41:31;;;;;;;5.23;1.60;;;16.10;99.90;;;;;;5038491;28;20665;-91
2022/09/04 10:44:27;;;;;;;5.17;1.40;;;16.20;99.90;;;;;;5014219;28;20263;-91
2022/09/04 10:47:12;;;;;;;3.47;1.23;;;16.20;99.90;;;;;;5038905;28;20608;-91
2022/09/04 10:50:06;;;;;;;3.93;1.33;;;16.10;99.90;;;;;;5041120;28;20266;-91
2022/09/04 10:52:59;;;;;;;3.43;1.60;;;16.10;99.90;;;;;;5033347;28;20593;-91
2022/09/04 10:55:49;;;;;;;2.90;1.33;;;16.10;99.90;;;;;;5037938;28;20672;-91
2022/09/04 10:58:30;;;;;;;3.53;1.53;;;16.10;99.90;;;;;;5040900;28;20205;-92
2022/09/04 11:01:36;;;;;;;4.83;1.57;;;16.10;99.90;;;;;;5038054;28;20229;-91
2022/09/04 11:04:44;;;;;;;3.70;1.40;;;16.00;99.90;;;;;;5029406;28;20224;-91
2022/09/04 11:07:33;;;;;;;5.67;1.80;;;15.90;99.90;;;;;;5040393;28;20212;-93
2022/09/04 11:10:26;;;;;;;2.70;1.43;;;15.80;99.90;;;;;;5040270;28;20703;-92
2022/09/04 11:13:32;;;;;;;3.73;1.50;;;15.70;99.90;;;;;;5038107;28;20205;-92
2022/09/04 11:16:20;;;;;;;3.93;1.83;;;15.60;99.90;;;;;;5026295;28;20227;-92
2022/09/04 11:19:22;;;;;;;3.37;1.50;;;15.50;99.90;;;;;;5040715;28;20290;-92
2022/09/04 11:22:43;;;;;;;4.23;1.70;;;15.40;99.90;;;;;;5041564;28;20220;-92
2022/09/04 11:26:04;;;;;;;2.93;1.43;;;15.30;99.90;;;;;;4961974;28;20235;-92
2022/09/04 11:29:12;;;;;;;3.30;1.50;;;15.20;99.90;;;;;;4963194;29;20299;-91
2022/09/04 11:32:14;;;;;;;4.50;1.67;;;15.20;99.90;;;;;;5045570;28;20216;-93
2022/09/04 11:35:18;;;;;;;2.93;1.47;;;15.00;99.90;;;;;;5014354;28;20204;-92
2022/09/04 11:38:09;;;;;;;3.17;1.60;;;14.90;99.90;;;;;;5041408;28;20709;-92
2022/09/04 11:41:14;;;;;;;6.10;1.83;;;14.90;99.90;;;;;;5042430;28;20263;-92
2022/09/04 11:44:33;;;;;;;2.33;1.73;;;14.80;99.90;;;;;;5036262;28;20208;-92
2022/09/04 11:47:29;;;;;;;4.80;1.97;;;14.80;99.90;;;;;;5035087;28;20205;-92
2022/09/04 11:50:15;;;;;;;4.07;1.97;;;14.70;99.90;;;;;;5056006;28;20258;-92
2022/09/04 11:53:03;;;;;;;2.03;1.33;;;14.70;99.90;;;;;;5060470;28;20215;-92
2022/09/04 11:56:12;;;;;;;2.00;1.80;;;14.60;99.90;;;;;;5057153;28;20667;-92
2022/09/04 11:59:19;;;;;;;3.07;1.90;;;14.60;99.90;;;;;;5044141;28;20204;-92
2022/09/04 12:02:09;;;;;;;2.40;1.63;;;14.60;99.90;;;;;;5034972;28;20212;-92
2022/09/04 12:05:08;;;;;;;3.43;1.80;;;14.60;99.90;;;;;;5061887;28;20192;-92
2022/09/04 12:07:52;;;;;;;3.20;2.00;;;14.50;99.90;;;;;;5056926;28;20224;-92
2022/09/04 12:10:35;;;;;;;2.83;1.87;;;14.50;99.90;;;;;;5060679;28;20204;-92
2022/09/04 12:13:42;;;;;;;3.63;2.00;;;14.50;99.90;;;;;;5056725;28;20216;-92
2022/09/04 12:16:46;;;;;;;2.03;1.83;;;14.50;99.90;;;;;;5057175;28;20208;-92
2022/09/04 12:20:00;;;;;;;2.27;1.90;;;14.50;99.90;;;;;;5059958;28;20212;-92
2022/09/04 12:23:16;;;;;;;4.47;2.17;;;14.60;99.90;;;;;;5015464;28;20204;-92
2022/09/04 12:26:21;;;;;;;2.17;1.97;;;14.60;99.90;;;;;;5044878;28;20219;-91
2022/09/04 12:29:26;;;;;;;2.50;1.80;;;14.60;99.90;;;;;;5071773;28;20243;-92
2022/09/04 12:32:21;;;;;;;2.43;1.77;;;14.60;99.90;;;;;;5075012;28;20184;-92
2022/09/04 12:35:19;;;;;;;2.33;1.90;;;14.60;99.90;;;;;;5064540;28;20192;-91
2022/09/04 12:38:20;;;;;;;2.83;1.77;;;14.60;99.90;;;;;;5075702;28;20191;-92
2022/09/04 12:41:07;;;;;;;7.00;2.17;;;14.60;99.90;;;;;;5075682;28;20202;-92
2022/09/04 12:44:03;;;;;;;2.90;1.60;;;14.60;99.90;;;;;;5075032;28;20204;-92
2022/09/04 12:46:49;;;;;;;5.47;1.90;;;14.60;99.90;;;;;;5052853;28;20201;-91
2022/09/04 12:49:43;;;;;;;2.70;2.20;;;14.60;99.90;;;;;;5041597;28;20735;-92
2022/09/04 12:52:26;;;;;;;1.93;1.70;;;14.60;99.90;;;;;;5042878;28;20236;-91
2022/09/04 12:55:08;;;;;;;4.27;2.03;;;14.60;99.90;;;;;;5040609;28;20209;-91
2022/09/04 12:57:54;;;;;;;5.50;1.90;;;14.60;99.90;;;;;;5039130;28;20212;-92
2022/09/04 13:00:31;;;;;;;2.33;1.80;;;14.60;99.90;;;;;;5041831;28;20212;-92
2022/09/04 13:03:26;;;;;;;1.73;1.60;;;14.70;99.90;;;;;;5042517;28;20232;-93
2022/09/04 13:06:20;;;;;;;2.73;1.67;;;14.70;99.90;;;;;;5043347;28;20205;-92
2022/09/04 13:09:06;;;;;;;3.83;2.03;;;14.70;99.90;;;;;;5041814;28;20228;-94
2022/09/04 13:11:48;;;;;;;1.90;1.70;;;14.60;99.90;;;;;;5044141;28;20193;-93
2022/09/04 13:14:56;;;;;;;2.30;1.77;;;14.60;99.90;;;;;;5044661;28;20208;-93
2022/09/04 13:17:35;;;;;;;3.10;1.80;;;14.60;99.90;;;;;;5055942;28;20208;-92
2022/09/04 13:20:19;;;;;;;2.57;1.70;;;14.60;99.90;;;;;;5062593;28;20212;-92
2022/09/04 13:23:17;;;;;;;3.80;1.83;;;14.50;99.90;;;;;;5060197;28;20280;-93
2022/09/04 13:26:05;;;;;;;3.10;1.90;;;14.50;99.90;;;;;;5062749;28;20204;-93
2022/09/04 13:28:49;;;;;;;3.10;1.77;;;14.50;99.90;;;;;;5062979;28;20281;-93
2022/09/04 13:31:44;;;;;;;2.27;1.80;;;14.40;99.90;;;;;;5060255;28;20339;-92
2022/09/04 13:34:24;;;;;;;4.03;1.90;;;14.40;99.90;;;;;;5063776;28;20212;-91
2022/09/04 13:37:04;;;;;;;4.33;1.70;;;14.30;99.90;;;;;;5062983;28;20204;-92
2022/09/04 13:39:59;;;;;;;2.00;1.80;;;14.40;99.90;;;;;;5062016;28;20200;-91
2022/09/04 13:43:04;;;;;;;2.77;1.70;;;14.30;99.90;;;;;;5064112;28;20294;-92
2022/09/04 13:45:40;;;;;;;3.90;1.87;;;14.20;99.90;;;;;;5060808;28;20223;-92
2022/09/04 13:48:13;;;;;;;4.83;1.73;;;14.20;99.90;;;;;;5060328;28;20261;-92
2022/09/04 13:50:54;;;;;;;2.13;1.93;;;14.20;99.90;;;;;;5060953;28;20729;-92
2022/09/04 13:53:29;;;;;;;2.83;1.80;;;14.20;99.90;;;;;;5059787;28;20204;-91
2022/09/04 13:56:08;;;;;;;4.13;1.87;;;14.20;99.90;;;;;;5060696;28;20330;-91
2022/09/04 13:58:45;;;;;;;3.33;1.87;;;14.20;99.90;;;;;;5060428;28;20235;-91
2022/09/04 14:01:20;;;;;;;1.77;1.63;;;14.20;99.90;;;;;;5060113;28;20207;-91
2022/09/04 14:03:55;;;;;;;3.47;1.50;;;14.20;99.90;;;;;;5042519;28;20267;-92
2022/09/04 14:06:31;;;;;;;2.03;1.83;;;14.30;99.90;;;;;;5042357;28;20215;-92
2022/09/04 14:09:03;;;;;;;2.37;1.83;;;14.30;99.90;;;;;;5060190;28;20242;-92
2022/09/04 14:12:09;;;;;;;3.57;2.00;;;14.30;99.90;;;;;;5059553;28;20295;-92
2022/09/04 14:15:19;;;;;;;2.90;1.87;;;14.20;99.90;;;;;;5059480;28;20228;-91
2022/09/04 14:17:59;;;;;;;3.60;1.93;;;14.20;99.90;;;;;;5012088;28;20220;-91
2022/09/04 14:20:34;;;;;;;4.70;1.90;;;14.30;99.90;;;;;;5058324;28;20208;-91
2022/09/04 14:23:19;;;;;;;2.67;2.07;;;14.20;99.90;;;;;;5058724;28;20192;-91
2022/09/04 14:25:56;;;;;;;3.03;1.83;;;14.20;99.90;;;;;;5059344;28;20243;-92
2022/09/04 14:28:35;;;;;;;2.70;1.80;;;14.30;99.90;;;;;;5059418;28;20687;-91
2022/09/04 14:31:16;;;;;;;1.80;1.50;;;14.30;99.90;;;;;;5058807;28;20216;-91
2022/09/04 14:33:57;;;;;;;2.20;1.90;;;14.40;99.90;;;;;;5058126;28;20215;-91
2022/09/04 14:36:38;;;;;;;3.47;1.63;;;14.50;99.90;;;;;;5058821;28;20204;-92
2022/09/04 14:39:20;;;;;;;1.97;1.77;;;14.60;99.90;;;;;;5058750;28;20227;-92
2022/09/04 14:42:21;;;;;;;3.33;1.87;;;14.70;99.90;;;;;;5058031;28;20211;-91
2022/09/04 14:45:08;;;;;;;2.43;1.70;;;14.90;99.90;;;;;;5053353;28;20235;-91
2022/09/04 14:47:46;;;;;;;2.97;1.40;;;15.10;99.90;;;;;;5058852;28;20215;-92
2022/09/04 14:50:19;;;;;;;1.93;1.47;;;15.50;99.90;;;;;;5058880;28;20247;-92
2022/09/04 14:52:53;;;;;;;2.13;1.70;;;15.80;99.90;;;;;;5057864;28;20208;-92
2022/09/04 14:55:30;;;;;;;4.03;1.70;;;16.20;99.90;;;;;;5058733;28;20200;-91
2022/09/04 14:58:11;;;;;;;2.57;1.30;;;16.40;99.90;;;;;;5060284;28;20212;-92
2022/09/04 15:01:00;;;;;;;2.80;2.00;;;16.50;99.90;;;;;;5058180;28;20638;-91
2022/09/04 15:03:38;;;;;;;4.37;1.80;;;16.60;99.90;;;;;;5059717;28;20212;-91
2022/09/04 15:06:16;;;;;;;2.07;1.20;;;16.60;99.90;;;;;;5062847;28;20289;-92
2022/09/04 15:08:55;;;;;;;2.67;1.60;;;16.60;99.90;;;;;;5058573;28;20212;-92
2022/09/04 15:11:34;;;;;;;2.43;1.40;;;16.70;99.90;;;;;;5060423;28;20231;-94
2022/09/04 15:14:23;;;;;;;2.80;1.37;;;16.80;99.90;;;;;;5058352;28;20265;-92
2022/09/04 15:17:00;;;;;;;2.50;1.10;;;16.90;99.90;;;;;;5060836;28;20208;-91
2022/09/04 15:19:45;;;;;;;4.93;1.33;;;17.10;99.90;;;;;;5058723;28;20653;-92
2022/09/04 15:22:20;;;;;;;3.90;1.20;;;17.30;99.90;;;;;;5057762;28;20676;-91
2022/09/04 15:24:59;;;;;;;5.77;1.23;;;17.50;99.90;;;;;;5058009;28;20207;-92
2022/09/04 15:27:42;;;;;;;3.13;1.13;;;17.80;99.90;;;;;;5057513;28;20204;-91
2022/09/04 15:30:21;;;;;;;1.17;1.00;;;17.90;99.90;;;;;;5058287;28;20683;-92
2022/09/04 15:33:05;;;;;;;2.00;1.07;;;18.00;99.90;;;;;;5056365;28;20234;-92
2022/09/04 15:35:37;;;;;;;3.10;1.23;;;18.20;99.90;;;;;;5066737;28;20864;-93
2022/09/04 15:38:19;;;;;;;2.37;1.27;;;18.10;99.90;;;;;;5067205;28;20212;-93
2022/09/04 15:41:04;;;;;;;4.47;1.50;;;18.10;99.90;;;;;;5068824;28;20228;-91
2022/09/04 15:43:52;;;;;;;1.87;1.13;;;18.10;99.90;;;;;;5065793;28;20218;-93
2022/09/04 15:46:42;;;;;;;3.13;1.27;;;18.00;99.90;;;;;;5066239;28;20287;-92
2022/09/04 15:49:38;;;;;;;4.03;1.40;;;17.90;99.90;;;;;;5065763;28;20208;-92